South Arkansas Regional At Goodwin Field El Dorado US
ICAO: KELD
IATA: ELD
Category: Medium
Scheduled Services: Yes

Elevation: 277 ft
TransAlt. 18000 ft.

Airport Communications:
FORT WORTH CNTR:126.32
ASOS:118.325
JONESBORO RDO:122.65
CTAF/UNICOM:123

KELD Zoom In..

Runways:

(A) RW 04 length 6601 ft width 150 ft
---- / hdg 43

(B) RW 13 length 5100 ft width 100 ft
---- / hdg 133

(C) RW 17 length 3733 ft width 75 ft
---- / hdg 178

(D) RW 22 length 6601 ft width 150 ft
ILS 111.10 / hdg 223

(E) RW 31 length 5100 ft width 100 ft
---- / hdg 313

(F) RW 35 length 3733 ft width 75 ft
---- / hdg 358

Location; KELD
Day. 25 / Time. 11.53 Zulu
* Altimeter: 30.04
* Temperature: 13° c. 55.4°f.
* Wind from: 000° Speed 00 kn.
Dewpoint: 13° c.
Visibility: 10 Statute Miles.
Clouds: Clear (automated report).

KELD 251153Z AUTO 00000KT 10SM CLR 13/13 A3004 RMK AO2 SLP171 T01330133 10156 20128 53003


Wind - Calm.

  YouTube Music Video
 
jpsmedia.com for Web Design  worldairports.se 2018   terms of use